createdAt,value
2023-02-14T00:00:06.486Z,14.43
2023-02-14T00:02:35.315Z,14.18
2023-02-14T00:05:02.143Z,12.45
2023-02-14T00:07:28.863Z,13.07
2023-02-14T00:09:55.546Z,14.48
2023-02-14T00:12:22.282Z,14.07
2023-02-14T00:15:07.778Z,13.93
2023-02-14T00:17:34.476Z,13.63
2023-02-14T00:20:01.197Z,14.45
2023-02-14T00:22:27.938Z,13.88
2023-02-14T00:24:54.677Z,14.55
2023-02-14T00:27:21.487Z,13.52
2023-02-14T00:29:48.255Z,14.45
2023-02-14T00:32:15.093Z,14.52
2023-02-14T00:34:42.026Z,14.40
2023-02-14T00:37:10.466Z,14.05
2023-02-14T00:39:37.207Z,15.57
2023-02-14T00:42:05.988Z,14.40
2023-02-14T00:44:32.716Z,16.08
2023-02-14T00:46:59.430Z,15.55
2023-02-14T00:49:26.232Z,13.77
2023-02-14T00:51:53.065Z,13.40
2023-02-14T00:54:19.854Z,14.85
2023-02-14T00:56:46.577Z,12.27
2023-02-14T00:59:13.441Z,14.15
2023-02-14T01:01:41.837Z,13.80
2023-02-14T01:04:09.765Z,15.38
2023-02-14T01:06:38.427Z,13.55
2023-02-14T01:09:05.256Z,16.23
2023-02-14T01:11:32.868Z,14.00
2023-02-14T01:13:59.948Z,16.50
2023-02-14T01:16:28.339Z,14.82
2023-02-14T01:18:55.677Z,14.85
2023-02-14T01:21:33.437Z,14.35
2023-02-14T01:24:03.317Z,16.10
2023-02-14T01:26:30.686Z,14.02
2023-02-14T01:29:01.327Z,14.43
2023-02-14T01:31:31.912Z,16.05
2023-02-14T01:33:59.299Z,15.85
2023-02-14T01:36:36.083Z,13.77
2023-02-14T01:39:06.900Z,15.45
2023-02-14T01:41:36.796Z,14.98
2023-02-14T01:44:28.704Z,16.60
2023-02-14T01:46:56.623Z,15.77
2023-02-14T01:49:40.915Z,14.85
2023-02-14T01:52:19.579Z,15.15
2023-02-14T01:54:53.845Z,16.95
2023-02-14T01:57:22.919Z,13.60
2023-02-14T02:00:16.810Z,14.73
2023-02-14T02:02:44.256Z,13.10
2023-02-14T02:05:12.059Z,15.23
2023-02-14T02:07:39.374Z,15.88
2023-02-14T02:10:07.076Z,14.57
2023-02-14T02:12:35.569Z,14.70
2023-02-14T02:15:03.933Z,14.65
2023-02-14T02:17:41.907Z,14.82
2023-02-14T02:20:32.825Z,15.68
2023-02-14T02:23:28.165Z,15.30
2023-02-14T02:26:16.776Z,15.02
2023-02-14T02:29:09.782Z,14.27
2023-02-14T02:31:59.815Z,14.13
2023-02-14T02:35:12.149Z,15.95
2023-02-14T02:38:04.999Z,16.40
2023-02-14T02:40:54.294Z,16.48
2023-02-14T02:43:45.280Z,14.52
2023-02-14T02:46:39.806Z,14.52
2023-02-14T02:49:52.449Z,14.35
2023-02-14T02:53:03.712Z,15.57
2023-02-14T02:55:57.932Z,15.20
2023-02-14T02:58:32.510Z,16.13
2023-02-14T03:01:02.111Z,15.65
2023-02-14T03:03:51.119Z,16.40
2023-02-14T03:06:17.851Z,14.13
2023-02-14T03:08:45.454Z,15.05
2023-02-14T03:11:13.728Z,14.45
2023-02-14T03:14:04.955Z,15.30
2023-02-14T03:16:57.410Z,14.90
2023-02-14T03:20:13.219Z,14.00
2023-02-14T03:22:58.717Z,14.05
2023-02-14T03:25:38.586Z,16.00
2023-02-14T03:28:47.008Z,16.33
2023-02-14T03:31:40.898Z,14.55
2023-02-14T03:34:41.364Z,13.55
2023-02-14T03:37:17.321Z,16.00
2023-02-14T03:39:55.876Z,15.32
2023-02-14T03:42:27.206Z,15.13
2023-02-14T03:44:55.932Z,13.63
2023-02-14T03:47:27.474Z,15.88
2023-02-14T03:49:59.270Z,14.27
2023-02-14T03:52:28.913Z,14.70
2023-02-14T03:54:58.709Z,15.93
2023-02-14T03:57:35.464Z,13.25
2023-02-14T04:00:03.026Z,14.50
2023-02-14T04:02:53.585Z,13.88
2023-02-14T04:05:24.925Z,15.75
2023-02-14T04:07:57.945Z,13.70
2023-02-14T04:10:25.981Z,15.63
2023-02-14T04:12:53.715Z,16.55
2023-02-14T04:15:20.431Z,14.52
2023-02-14T04:18:05.596Z,14.13
2023-02-14T04:20:32.336Z,14.45
2023-02-14T04:22:59.134Z,14.25
2023-02-14T04:25:26.014Z,13.88
2023-02-14T04:27:52.766Z,14.27
2023-02-14T04:30:21.651Z,15.55
2023-02-14T04:32:49.163Z,15.00
2023-02-14T04:35:16.181Z,13.82
2023-02-14T04:37:43.138Z,12.02
2023-02-14T04:40:10.385Z,12.93
2023-02-14T04:42:37.107Z,14.13
2023-02-14T04:45:04.508Z,14.75
2023-02-14T04:47:31.423Z,16.15
2023-02-14T04:49:58.265Z,12.98
2023-02-14T04:52:24.931Z,12.77
2023-02-14T04:54:51.642Z,13.20
2023-02-14T04:57:18.358Z,14.73
2023-02-14T04:59:45.039Z,13.13
2023-02-14T05:02:11.848Z,14.13
2023-02-14T05:04:38.540Z,11.85
2023-02-14T05:07:05.395Z,11.88
2023-02-14T05:09:32.243Z,12.43
2023-02-14T05:11:58.976Z,12.63
2023-02-14T05:14:25.922Z,11.48
2023-02-14T05:16:52.675Z,12.30
2023-02-14T05:19:19.482Z,11.70
2023-02-14T05:21:47.079Z,12.10
2023-02-14T05:24:13.981Z,11.93
2023-02-14T05:26:41.020Z,12.60
2023-02-14T05:29:07.867Z,12.10
2023-02-14T05:31:34.855Z,14.95
2023-02-14T05:34:01.843Z,14.35
2023-02-14T05:36:28.597Z,11.95
2023-02-14T05:38:55.368Z,14.00
2023-02-14T05:41:22.071Z,13.20
2023-02-14T05:43:48.865Z,12.93
2023-02-14T05:46:15.863Z,13.30
2023-02-14T05:48:42.705Z,12.75
2023-02-14T05:51:10.897Z,11.15
2023-02-14T05:53:38.410Z,12.38
2023-02-14T05:56:05.870Z,10.23
2023-02-14T05:58:32.781Z,11.82
2023-02-14T06:01:00.335Z,9.85
2023-02-14T06:03:27.540Z,10.95
2023-02-14T06:05:54.386Z,11.23
2023-02-14T06:08:21.165Z,15.93
2023-02-14T06:10:48.007Z,11.93
2023-02-14T06:13:14.822Z,10.95
2023-02-14T06:15:41.605Z,9.80
2023-02-14T06:18:09.405Z,13.88
2023-02-14T06:20:36.216Z,11.15
2023-02-14T06:23:03.098Z,9.10
2023-02-14T06:25:29.858Z,10.15
2023-02-14T06:27:58.137Z,11.10
2023-02-14T06:30:26.011Z,8.32
2023-02-14T06:32:53.865Z,9.77
2023-02-14T06:35:20.636Z,9.93
2023-02-14T06:37:47.458Z,8.48
2023-02-14T06:40:14.659Z,7.85
2023-02-14T06:42:42.387Z,8.93
2023-02-14T06:45:10.654Z,8.48
2023-02-14T06:47:37.572Z,6.57
2023-02-14T06:50:05.209Z,7.65
2023-02-14T06:52:35.103Z,8.40
2023-02-14T06:55:01.884Z,7.30
2023-02-14T06:57:28.624Z,7.97
2023-02-14T06:59:55.533Z,7.55
2023-02-14T07:02:24.804Z,6.13
2023-02-14T07:04:51.859Z,6.55
2023-02-14T07:07:18.702Z,8.50
2023-02-14T07:09:45.460Z,8.27
2023-02-14T07:12:12.263Z,7.22
2023-02-14T07:14:39.053Z,8.75
2023-02-14T07:17:05.877Z,7.43
2023-02-14T07:19:32.654Z,6.70
2023-02-14T07:21:59.481Z,7.10
2023-02-14T07:24:26.260Z,6.35
2023-02-14T07:26:52.994Z,9.00
2023-02-14T07:29:19.885Z,5.93
2023-02-14T07:31:46.794Z,7.10
2023-02-14T07:34:13.631Z,6.63
2023-02-14T07:36:40.377Z,6.13
2023-02-14T07:39:10.693Z,4.80
2023-02-14T07:41:47.862Z,5.63
2023-02-14T07:44:20.145Z,6.20
2023-02-14T07:46:52.921Z,5.05
2023-02-14T07:49:19.669Z,6.18
2023-02-14T07:51:46.558Z,5.75
2023-02-14T07:54:13.316Z,5.88
2023-02-14T07:56:40.014Z,5.25
2023-02-14T07:59:06.814Z,4.35
2023-02-14T08:01:33.652Z,5.93
2023-02-14T08:04:00.422Z,3.83
2023-02-14T08:06:28.008Z,6.63
2023-02-14T08:08:54.859Z,5.10
2023-02-14T08:11:40.463Z,5.97
2023-02-14T08:14:07.226Z,5.55
2023-02-14T08:16:34.727Z,5.60
2023-02-14T08:19:01.928Z,5.30
2023-02-14T08:21:29.245Z,6.43
2023-02-14T08:23:56.159Z,4.55
2023-02-14T08:26:23.032Z,4.50
2023-02-14T08:28:49.968Z,5.35
2023-02-14T08:31:35.624Z,4.70
2023-02-14T08:34:06.618Z,5.47
2023-02-14T08:36:34.285Z,5.97
2023-02-14T08:39:01.699Z,4.65
2023-02-14T08:41:28.444Z,4.63
2023-02-14T08:43:55.210Z,4.93
2023-02-14T08:46:22.231Z,5.43
2023-02-14T08:48:50.080Z,4.75
2023-02-14T08:51:17.312Z,5.28
2023-02-14T08:53:44.500Z,4.45
2023-02-14T08:56:14.018Z,5.38
2023-02-14T08:58:41.375Z,6.25
2023-02-14T09:01:12.873Z,5.35
2023-02-14T09:03:39.899Z,4.07
2023-02-14T09:06:09.094Z,5.07
2023-02-14T09:08:38.864Z,5.25
2023-02-14T09:11:10.284Z,6.03
2023-02-14T09:13:37.820Z,3.58
2023-02-14T09:16:06.107Z,4.47
2023-02-14T09:18:33.522Z,4.45
2023-02-14T09:21:01.820Z,4.60
2023-02-14T09:23:28.849Z,4.32
2023-02-14T09:26:03.630Z,4.57
2023-02-14T09:28:30.746Z,5.00
2023-02-14T09:30:58.430Z,6.25
2023-02-14T09:33:47.512Z,5.97
2023-02-14T09:36:33.478Z,5.78
2023-02-14T09:39:00.257Z,6.07
2023-02-14T09:41:30.061Z,6.00
2023-02-14T09:44:10.912Z,4.68
2023-02-14T09:46:46.696Z,5.55
2023-02-14T09:49:15.506Z,6.30
2023-02-14T09:51:48.949Z,5.18
2023-02-14T09:57:08.844Z,8.85
2023-02-14T10:00:00.057Z,7.50
2023-02-14T10:02:47.041Z,5.78
2023-02-14T10:05:22.604Z,7.93
2023-02-14T10:08:21.332Z,6.18
2023-02-14T10:10:57.592Z,5.68
2023-02-14T10:13:39.793Z,6.60
2023-02-14T10:16:27.191Z,8.13
2023-02-14T10:19:05.880Z,8.40
2023-02-14T10:21:39.148Z,6.15
2023-02-14T10:24:19.816Z,5.80
2023-02-14T10:26:49.874Z,6.40
2023-02-14T10:29:19.238Z,6.45
2023-02-14T10:31:57.952Z,6.85
2023-02-14T10:34:38.484Z,6.03
2023-02-14T10:37:26.258Z,6.15
2023-02-14T10:40:20.992Z,5.63
2023-02-14T10:42:59.396Z,6.68
2023-02-14T10:45:41.855Z,7.28
2023-02-14T10:48:18.082Z,7.10
2023-02-14T10:51:04.665Z,6.38
2023-02-14T10:53:41.228Z,7.05
2023-02-14T10:56:26.956Z,6.60
2023-02-14T10:58:56.548Z,6.20
2023-02-14T11:01:23.896Z,6.68
2023-02-14T11:04:03.409Z,6.07
2023-02-14T11:06:30.699Z,7.05
2023-02-14T11:08:57.610Z,5.78
2023-02-14T11:11:55.436Z,5.63
2023-02-14T11:14:30.038Z,5.43
2023-02-14T11:16:58.799Z,6.43
2023-02-14T11:19:26.791Z,6.95
2023-02-14T11:21:56.666Z,6.13
2023-02-14T11:24:34.166Z,8.63
2023-02-14T11:27:04.456Z,9.30
2023-02-14T11:29:47.928Z,6.78
2023-02-14T11:32:19.806Z,7.30
2023-02-14T11:35:03.950Z,6.65
2023-02-14T11:37:49.100Z,7.85
2023-02-14T11:40:29.795Z,8.63
2023-02-14T11:43:18.675Z,7.68
2023-02-14T11:45:47.564Z,7.45
2023-02-14T11:48:37.208Z,5.88
2023-02-14T11:51:15.618Z,7.75
2023-02-14T11:53:50.375Z,7.38
2023-02-14T11:56:19.644Z,8.35
2023-02-14T11:58:54.789Z,8.10
2023-02-14T12:01:33.373Z,8.43
2023-02-14T12:04:05.140Z,7.90
2023-02-14T12:06:35.517Z,6.18
2023-02-14T12:09:24.553Z,8.77
2023-02-14T12:12:05.908Z,8.05
2023-02-14T12:14:35.345Z,8.52
2023-02-14T12:17:18.877Z,7.32
2023-02-14T12:22:28.387Z,7.43
2023-02-14T12:25:10.625Z,9.93
2023-02-14T12:27:56.356Z,5.95
2023-02-14T12:30:25.348Z,7.43
2023-02-14T12:32:54.513Z,7.88
2023-02-14T12:35:40.979Z,6.28
2023-02-14T12:38:38.187Z,7.60
2023-02-14T12:41:04.831Z,7.10
2023-02-14T12:43:54.216Z,8.90
2023-02-14T12:46:46.501Z,8.73
2023-02-14T12:49:31.933Z,8.13
2023-02-14T12:52:22.315Z,7.00
2023-02-14T12:55:23.484Z,7.57
2023-02-14T12:57:57.811Z,7.75
2023-02-14T13:00:43.123Z,7.80
2023-02-14T13:03:36.384Z,9.77
2023-02-14T13:06:19.512Z,10.07
2023-02-14T13:09:01.270Z,7.03
2023-02-14T13:11:52.990Z,7.50
2023-02-14T13:14:43.021Z,6.53
2023-02-14T13:17:26.669Z,9.60
2023-02-14T13:22:36.397Z,8.18
2023-02-14T13:25:18.889Z,7.80
2023-02-14T13:27:45.978Z,6.05
2023-02-14T13:30:21.713Z,8.13
2023-02-14T13:32:51.430Z,5.93
2023-02-14T13:35:21.321Z,7.55
2023-02-14T13:37:58.043Z,5.97
2023-02-14T13:40:28.117Z,8.00
2023-02-14T13:42:59.812Z,8.80
2023-02-14T13:45:35.270Z,6.80
2023-02-14T13:48:29.278Z,8.63
2023-02-14T13:51:08.150Z,8.93
2023-02-14T13:53:41.095Z,8.48
2023-02-14T13:56:32.473Z,7.28
2023-02-14T13:59:05.806Z,9.38
2023-02-14T14:04:27.853Z,7.18
2023-02-14T14:07:03.218Z,10.82
2023-02-14T14:09:42.242Z,10.43
2023-02-14T14:12:27.357Z,7.22
2023-02-14T14:15:15.784Z,8.93
2023-02-14T14:17:50.029Z,7.25
2023-02-14T14:20:16.695Z,9.38
2023-02-14T14:22:49.223Z,9.57
2023-02-14T14:25:41.516Z,8.93
2023-02-14T14:28:13.169Z,8.88
2023-02-14T14:30:44.676Z,8.00
2023-02-14T14:33:16.917Z,10.55
2023-02-14T14:36:02.675Z,10.30
2023-02-14T14:38:31.289Z,10.18
2023-02-14T14:41:00.115Z,7.82
2023-02-14T14:43:33.098Z,7.53
2023-02-14T14:46:02.396Z,10.15
2023-02-14T14:48:33.561Z,10.15
2023-02-14T14:51:00.663Z,9.75
2023-02-14T14:53:36.423Z,9.25
2023-02-14T14:56:03.487Z,8.90
2023-02-14T14:58:39.273Z,11.48
2023-02-14T15:01:10.941Z,9.38
2023-02-14T15:03:37.648Z,10.82
2023-02-14T15:06:17.434Z,13.02
2023-02-14T15:08:45.213Z,34.97
2023-02-14T15:11:47.414Z,31.45
2023-02-14T15:14:21.654Z,26.70
2023-02-14T15:16:57.563Z,23.67
2023-02-14T15:19:37.232Z,22.20
2023-02-14T15:22:07.715Z,22.15
2023-02-14T15:24:38.001Z,21.23
2023-02-14T15:27:05.194Z,19.98
2023-02-14T15:29:33.544Z,17.45
2023-02-14T15:32:03.365Z,19.42
2023-02-14T15:34:33.089Z,19.90
2023-02-14T15:37:06.127Z,19.08
2023-02-14T15:39:40.575Z,24.75
2023-02-14T15:42:25.792Z,17.17
2023-02-14T15:45:24.209Z,20.02
2023-02-14T15:48:00.978Z,32.53
2023-02-14T15:50:34.166Z,33.45
2023-02-14T15:53:19.572Z,39.73
2023-02-14T15:55:50.968Z,40.05
2023-02-14T16:01:21.451Z,39.00
2023-02-14T16:03:59.202Z,45.13
2023-02-14T16:07:26.359Z,39.75
2023-02-14T16:10:44.298Z,40.58
2023-02-14T16:13:43.398Z,38.00
2023-02-14T16:16:22.524Z,36.67
2023-02-14T16:19:27.563Z,32.42
2023-02-14T16:22:38.728Z,36.08
2023-02-14T16:25:08.611Z,37.90
2023-02-14T16:27:35.351Z,28.80
2023-02-14T16:30:02.117Z,31.75
2023-02-14T16:32:45.592Z,29.02
2023-02-14T16:35:57.500Z,31.35
2023-02-14T16:39:12.346Z,30.52
2023-02-14T16:41:54.143Z,34.55
2023-02-14T16:44:21.157Z,31.40
2023-02-14T16:46:47.920Z,28.77
2023-02-14T16:49:15.065Z,31.23
2023-02-14T16:51:45.331Z,28.58
2023-02-14T16:54:16.819Z,33.78
2023-02-14T16:56:52.396Z,28.30
2023-02-14T16:59:19.311Z,27.50
2023-02-14T17:01:46.276Z,31.20
2023-02-14T17:04:13.137Z,26.10
2023-02-14T17:06:46.969Z,24.10
2023-02-14T17:09:17.619Z,25.70
2023-02-14T17:11:49.358Z,24.70
2023-02-14T17:14:21.013Z,25.52
2023-02-14T17:16:47.983Z,24.10
2023-02-14T17:19:15.116Z,25.75
2023-02-14T17:21:42.129Z,23.58
2023-02-14T17:24:08.843Z,22.52
2023-02-14T17:26:38.047Z,26.33
2023-02-14T17:29:06.808Z,22.23
2023-02-14T17:31:34.657Z,26.48
2023-02-14T17:34:01.410Z,25.05
2023-02-14T17:36:28.185Z,27.42
2023-02-14T17:38:54.960Z,22.58
2023-02-14T17:41:26.191Z,25.70
2023-02-14T17:43:54.835Z,22.17
2023-02-14T17:46:22.246Z,24.48
2023-02-14T17:48:49.152Z,36.17
2023-02-14T17:51:17.177Z,19.48
2023-02-14T17:53:43.903Z,23.70
2023-02-14T17:56:18.005Z,19.48
2023-02-14T17:58:47.599Z,18.75
2023-02-14T18:01:16.245Z,22.23
2023-02-14T18:03:43.191Z,22.38
2023-02-14T18:06:11.374Z,18.55
2023-02-14T18:08:41.092Z,22.13
2023-02-14T18:11:09.706Z,21.60
2023-02-14T18:13:36.986Z,23.52
2023-02-14T18:16:12.950Z,21.58
2023-02-14T18:18:40.118Z,20.02
2023-02-14T18:21:09.514Z,19.58
2023-02-14T18:23:37.392Z,21.73
2023-02-14T18:26:07.126Z,24.83
2023-02-14T18:28:34.890Z,19.42
2023-02-14T18:31:06.969Z,21.02
2023-02-14T18:33:34.295Z,22.55
2023-02-14T18:36:07.012Z,20.13
2023-02-14T18:38:34.782Z,22.52
2023-02-14T18:41:06.336Z,18.60
2023-02-14T18:43:33.531Z,17.05
2023-02-14T18:46:11.567Z,21.08
2023-02-14T18:48:38.984Z,21.40
2023-02-14T18:51:08.731Z,19.60
2023-02-14T18:53:36.755Z,19.83
2023-02-14T18:56:09.337Z,18.67
2023-02-14T18:58:36.473Z,22.50
2023-02-14T19:01:14.721Z,22.17
2023-02-14T19:03:42.211Z,19.23
2023-02-14T19:06:10.309Z,20.05
2023-02-14T19:08:39.066Z,19.45
2023-02-14T19:11:14.442Z,23.48
2023-02-14T19:13:49.905Z,21.60
2023-02-14T19:16:22.250Z,22.15
2023-02-14T19:18:49.875Z,17.93
2023-02-14T19:21:22.491Z,21.13
2023-02-14T19:23:50.551Z,18.75
2023-02-14T19:26:25.628Z,17.42
2023-02-14T19:28:58.110Z,13.90
2023-02-14T19:31:27.019Z,14.52
2023-02-14T19:34:01.426Z,13.05
2023-02-14T19:36:29.496Z,10.23
2023-02-14T19:39:09.447Z,11.68
2023-02-14T19:41:40.775Z,9.85
2023-02-14T19:44:09.806Z,9.18
2023-02-14T19:46:42.619Z,8.38
2023-02-14T19:49:22.786Z,8.50
2023-02-14T19:52:37.692Z,8.63
2023-02-14T19:58:20.256Z,7.70
2023-02-14T20:00:55.905Z,9.02
2023-02-14T20:03:44.844Z,8.07
2023-02-14T20:06:15.499Z,7.28
2023-02-14T20:08:47.948Z,6.38
2023-02-14T20:11:32.734Z,7.60
2023-02-14T20:14:01.947Z,7.13
2023-02-14T20:16:31.724Z,6.70
2023-02-14T20:19:12.492Z,8.63
2023-02-14T20:21:51.301Z,9.63
2023-02-14T20:24:27.834Z,6.55
2023-02-14T20:26:54.961Z,11.07
2023-02-14T20:29:23.478Z,10.75
2023-02-14T20:31:53.521Z,7.25
2023-02-14T20:34:21.291Z,9.48
2023-02-14T20:36:52.933Z,9.07
2023-02-14T20:39:21.178Z,6.05
2023-02-14T20:41:50.701Z,11.55
2023-02-14T20:44:21.942Z,9.88
2023-02-14T20:46:51.736Z,7.65
2023-02-14T20:49:20.260Z,10.95
2023-02-14T20:51:49.517Z,8.25
2023-02-14T20:54:18.205Z,8.60
2023-02-14T20:56:46.005Z,12.10
2023-02-14T20:59:13.524Z,6.53
2023-02-14T21:01:40.531Z,8.35
2023-02-14T21:04:07.443Z,6.93
2023-02-14T21:06:35.509Z,8.10
2023-02-14T21:09:02.537Z,7.93
2023-02-14T21:11:29.371Z,10.38
2023-02-14T21:13:59.556Z,6.78
2023-02-14T21:16:27.977Z,7.32
2023-02-14T21:18:59.545Z,8.57
2023-02-14T21:21:36.062Z,7.47
2023-02-14T21:24:14.586Z,10.98
2023-02-14T21:26:42.857Z,6.88
2023-02-14T21:29:10.620Z,6.82
2023-02-14T21:31:37.442Z,6.68
2023-02-14T21:34:04.837Z,8.18
2023-02-14T21:36:35.493Z,6.43
2023-02-14T21:39:03.747Z,7.20
2023-02-14T21:41:31.454Z,7.85
2023-02-14T21:44:02.080Z,8.35
2023-02-14T21:46:31.925Z,9.02
2023-02-14T21:49:19.384Z,6.97
2023-02-14T21:51:46.854Z,7.00
2023-02-14T21:54:14.519Z,6.53
2023-02-14T21:56:41.926Z,7.25
2023-02-14T21:59:09.755Z,8.02
2023-02-14T22:01:39.266Z,7.60
2023-02-14T22:04:10.791Z,6.90
2023-02-14T22:06:39.799Z,11.63
2023-02-14T22:09:07.621Z,7.32
2023-02-14T22:11:35.170Z,8.75
2023-02-14T22:14:02.411Z,8.00
2023-02-14T22:16:29.326Z,7.43
2023-02-14T22:18:56.027Z,8.40
2023-02-14T22:21:25.540Z,8.50
2023-02-14T22:23:52.981Z,10.65
2023-02-14T22:26:23.676Z,11.35
2023-02-14T22:28:53.718Z,14.88
2023-02-14T22:31:20.483Z,9.25
2023-02-14T22:33:48.340Z,8.30
2023-02-14T22:36:15.321Z,9.43
2023-02-14T22:38:42.261Z,12.68
2023-02-14T22:41:14.626Z,9.95
2023-02-14T22:43:41.764Z,13.85
2023-02-14T22:46:14.309Z,9.90
2023-02-14T22:48:41.073Z,8.23
2023-02-14T22:51:27.786Z,10.95
2023-02-14T22:54:03.017Z,11.38
2023-02-14T22:56:34.247Z,10.20
2023-02-14T22:59:06.745Z,10.02
2023-02-14T23:01:34.741Z,12.80
2023-02-14T23:04:02.737Z,12.98
2023-02-14T23:06:31.223Z,9.40
2023-02-14T23:08:58.721Z,8.82
2023-02-14T23:11:28.062Z,8.95
2023-02-14T23:14:14.311Z,9.82
2023-02-14T23:17:00.395Z,9.68
2023-02-14T23:19:50.903Z,8.07
2023-02-14T23:22:23.356Z,9.13
2023-02-14T23:24:51.655Z,9.15
2023-02-14T23:27:24.257Z,9.43
2023-02-14T23:29:50.957Z,7.75
2023-02-14T23:32:17.775Z,9.45
2023-02-14T23:34:45.129Z,10.55
2023-02-14T23:37:13.547Z,10.00
2023-02-14T23:39:40.780Z,7.30
2023-02-14T23:42:10.970Z,9.20
2023-02-14T23:44:38.140Z,10.95
2023-02-14T23:47:06.906Z,8.05
2023-02-14T23:49:35.340Z,10.23
2023-02-14T23:52:03.076Z,10.25
2023-02-14T23:54:29.789Z,7.88
2023-02-14T23:56:59.879Z,10.32
2023-02-14T23:59:27.016Z,7.72
